»·PEaware :: N2442P KRDD-KFOT

N2442P :: KRDD-KFOT

FLIGHT INFORMATION

Flight Status: Arrived
Operator: Privately registered:
United States
More flights under this callsign
Pilot: Ken Q. (14290)
Aircraft: CESSNA 210 CENTURION
(C210)
More flights by this aircraft type
Origin: KRDD Redding Mun
United States
Destination: KFOT Rohnerville
United States
More flights between these airports :: More routes between these airports
Route: +FOT
File this flight plan on PilotEdge
Remarks: X
Altitude:
(Current/Filed)
10,500ft
Speed:
(Current/Filed)
175kts
Departed: 03-May-19 08:10 AM
Arrived: 03-May-19 08:55 AM
Distance/Time
Traveled:
0nm/0:44
Distance/Time
To Go:
Arrived

Flight Plot

Page will automatically refresh every two minutes.

Flight plan parsing failed; only flown route is shown


Map Options




Map Legend


Flown Route
Filed Route
Departure Airport
Arrival Airport
Navaid (VOR, NDB)
Fix

Horizontal Profiles

Position Reports

Time Latitude Longitude Heading Altitude Ground
Speed
03-May-19 07:39 40.510306 -122.297956 353 506ft 0kts
03-May-19 07:40 40.510306 -122.297956 353 506ft 0kts
03-May-19 07:41 40.510306 -122.297956 353 506ft 0kts
03-May-19 07:42 40.510306 -122.297956 353 506ft 0kts
03-May-19 07:43 40.510306 -122.297956 353 506ft 0kts
03-May-19 07:44 40.510306 -122.297956 353 506ft 0kts
03-May-19 07:45 40.510306 -122.297956 353 506ft 0kts
03-May-19 07:46 40.510306 -122.297956 353 506ft 0kts
03-May-19 07:47 40.510306 -122.297956 353 506ft 0kts
03-May-19 07:48 40.510306 -122.297956 353 506ft 0kts
03-May-19 07:49 40.510306 -122.297956 353 506ft 0kts
03-May-19 07:50 40.510306 -122.297956 353 506ft 0kts
03-May-19 07:51 40.510306 -122.297956 353 506ft 0kts
03-May-19 07:52 40.510306 -122.297956 353 506ft 0kts
03-May-19 07:53 40.510306 -122.297956 353 506ft 0kts
03-May-19 07:54 40.510306 -122.297956 353 506ft 0kts
03-May-19 07:55 40.510306 -122.297956 353 506ft 0kts
03-May-19 07:56 40.510307 -122.297956 353 506ft 0kts
03-May-19 07:57 40.510307 -122.297956 354 506ft 0kts
03-May-19 07:58 40.510308 -122.297956 354 506ft 0kts
03-May-19 07:59 40.510308 -122.297956 354 506ft 0kts
03-May-19 08:00 40.510338 -122.297984 302 506ft 2kts
03-May-19 08:01 40.512050 -122.296807 52 506ft 11kts
03-May-19 08:02 40.515456 -122.296311 359 506ft 16kts
03-May-19 08:03 40.520162 -122.296304 350 506ft 12kts
03-May-19 08:04 40.520462 -122.296240 117 506ft 0kts
03-May-19 08:05 40.520460 -122.296234 117 506ft 0kts
03-May-19 08:06 40.520458 -122.296229 117 506ft 0kts
03-May-19 08:07 40.520300 -122.296005 108 506ft 0kts
03-May-19 08:08 40.519622 -122.294874 200 506ft 0kts
03-May-19 08:09 40.497362 -122.296109 190 1112ft 127kts
03-May-19 08:10 40.485294 -122.336186 284 1728ft 153kts
03-May-19 08:11 40.494705 -122.390746 284 2275ft 154kts
03-May-19 08:13 40.491368 -122.447506 261 2816ft 157kts
03-May-19 08:14 40.483872 -122.504373 261 3352ft 158kts
03-May-19 08:15 40.475049 -122.561617 256 3871ft 161kts
03-May-19 08:16 40.463909 -122.618911 256 4369ft 162kts
03-May-19 08:17 40.455001 -122.676986 260 4878ft 163kts
03-May-19 08:18 40.445775 -122.735075 255 5428ft 160kts
03-May-19 08:19 40.434558 -122.791843 255 6037ft 161kts
03-May-19 08:20 40.419405 -122.847424 248 6632ft 162kts
03-May-19 08:21 40.402803 -122.902692 248 7229ft 162kts
03-May-19 08:22 40.393763 -122.959421 287 7762ft 164kts
03-May-19 08:23 40.411631 -123.014917 294 8164ft 161kts
03-May-19 08:24 40.430403 -123.067698 286 8561ft 158kts
03-May-19 08:25 40.441799 -123.123614 284 8961ft 159kts
03-May-19 08:26 40.453083 -123.180060 284 9363ft 159kts
03-May-19 08:27 40.464173 -123.236345 284 9763ft 160kts
03-May-19 08:28 40.475187 -123.292658 284 10160ft 157kts
03-May-19 08:29 40.485866 -123.348245 284 10540ft 158kts
03-May-19 08:30 40.497057 -123.407017 284 10555ft 169kts
03-May-19 08:31 40.508590 -123.467152 284 10553ft 170kts
03-May-19 08:32 40.519836 -123.525554 284 10154ft 165kts
03-May-19 08:33 40.531297 -123.584169 284 9649ft 165kts
03-May-19 08:34 40.542802 -123.641535 283 9107ft 160kts
03-May-19 08:35 40.554463 -123.698470 284 8523ft 157kts
03-May-19 08:36 40.564296 -123.746203 284 8502ft 141kts
03-May-19 08:36 40.572032 -123.783646 284 8394ft 143kts
03-May-19 08:38 40.583081 -123.845226 280 7699ft 150kts
03-May-19 08:39 40.591274 -123.898901 280 7089ft 147kts
03-May-19 08:39 40.596971 -123.942877 274 6581ft 145kts
03-May-19 08:41 40.601202 -123.999728 272 5924ft 143kts
03-May-19 08:41 40.602536 -124.043275 271 5416ft 141kts
03-May-19 08:42 40.611965 -124.090795 290 4804ft 131kts
03-May-19 08:44 40.626641 -124.142600 292 4090ft 127kts
03-May-19 08:44 40.620838 -124.176027 211 3585ft 127kts
03-May-19 08:45 40.588317 -124.185101 220 2974ft 127kts
03-May-19 08:46 40.598540 -124.218848 290 2464ft 123kts
03-May-19 08:47 40.577708 -124.221603 118 1952ft 120kts
03-May-19 08:48 40.562702 -124.182427 113 1452ft 115kts
03-May-19 08:49 40.546900 -124.149590 136 1233ft 107kts
03-May-19 08:50 40.530203 -124.122648 116 1200ft 91kts
03-May-19 08:51 40.523220 -124.092223 36 1244ft 85kts
03-May-19 08:52 40.537073 -124.102435 289 1042ft 76kts
03-May-19 08:53 40.549107 -124.124521 305 518ft 72kts
03-May-19 08:54 40.554491 -124.132427 304 358ft 8kts
03-May-19 08:55 40.556128 -124.135222 121 358ft 9kts
03-May-19 08:56 40.554865 -124.132304 311 358ft 7kts
03-May-19 08:57 40.555942 -124.133290 249 358ft 4kts
03-May-19 08:58 40.555874 -124.133338 222 358ft 0kts
03-May-19 08:59 40.555874 -124.133338 222 358ft 0kts
03-May-19 09:00 40.555874 -124.133338 222 358ft 0kts
03-May-19 09:01 40.510306 -122.297956 353 506ft 0kts

Navigation Log

Ident Type
Flight plan parsing failed, navigation log unavailable